sensor_id;sensor_type;location;lat;lon;timestamp;pressure;altitude;pressure_sealevel;temperature;humidity
12073;BME280;6098;49.004;8.372;2023-02-18T00:02:54;101358.64;;;12.98;81.27
12073;BME280;6098;49.004;8.372;2023-02-18T00:17:47;101361.69;;;12.99;81.02
12073;BME280;6098;49.004;8.372;2023-02-18T00:32:38;101368.72;;;13.01;80.95
12073;BME280;6098;49.004;8.372;2023-02-18T00:47:32;101358.71;;;12.95;81.51
12073;BME280;6098;49.004;8.372;2023-02-18T01:02:26;101354.78;;;12.93;81.72
12073;BME280;6098;49.004;8.372;2023-02-18T01:17:19;101353.02;;;12.93;81.82
12073;BME280;6098;49.004;8.372;2023-02-18T01:32:12;101348.31;;;12.88;82.09
12073;BME280;6098;49.004;8.372;2023-02-18T01:47:03;101328.47;;;12.85;82.28
12073;BME280;6098;49.004;8.372;2023-02-18T02:01:57;101337.92;;;12.80;82.94
12073;BME280;6098;49.004;8.372;2023-02-18T02:17:05;101331.46;;;12.74;83.47
12073;BME280;6098;49.004;8.372;2023-02-18T02:47:25;101308.93;;;12.45;87.30
12073;BME280;6098;49.004;8.372;2023-02-18T03:32:48;101250.23;;;12.37;87.17
12073;BME280;6098;49.004;8.372;2023-02-18T03:47:41;101241.80;;;12.38;87.04
12073;BME280;6098;49.004;8.372;2023-02-18T04:02:34;101221.49;;;12.35;86.96
12073;BME280;6098;49.004;8.372;2023-02-18T04:17:31;101237.12;;;12.32;86.85
12073;BME280;6098;49.004;8.372;2023-02-18T04:32:24;101238.58;;;12.27;87.33
12073;BME280;6098;49.004;8.372;2023-02-18T04:47:16;101236.38;;;12.27;87.61
12073;BME280;6098;49.004;8.372;2023-02-18T05:02:08;101226.29;;;12.24;88.05
12073;BME280;6098;49.004;8.372;2023-02-18T05:17:01;101216.22;;;12.20;88.46
12073;BME280;6098;49.004;8.372;2023-02-18T05:31:54;101197.23;;;12.18;88.68
12073;BME280;6098;49.004;8.372;2023-02-18T05:46:46;101188.81;;;12.19;88.73
12073;BME280;6098;49.004;8.372;2023-02-18T06:01:39;101191.30;;;12.24;88.35
12073;BME280;6098;49.004;8.372;2023-02-18T06:16:31;101192.89;;;12.29;87.87
12073;BME280;6098;49.004;8.372;2023-02-18T06:31:25;101194.47;;;12.34;86.97
12073;BME280;6098;49.004;8.372;2023-02-18T06:46:18;101195.98;;;12.43;85.99
12073;BME280;6098;49.004;8.372;2023-02-18T07:01:10;101175.27;;;12.52;84.83
12073;BME280;6098;49.004;8.372;2023-02-18T07:16:04;101153.54;;;12.65;83.49
12073;BME280;6098;49.004;8.372;2023-02-18T07:30:59;101147.05;;;12.85;81.56
12073;BME280;6098;49.004;8.372;2023-02-18T07:45:54;101137.96;;;13.04;79.66
12073;BME280;6098;49.004;8.372;2023-02-18T08:00:48;101133.78;;;13.21;78.12
12073;BME280;6098;49.004;8.372;2023-02-18T08:15:42;101119.06;;;13.34;77.14
12073;BME280;6098;49.004;8.372;2023-02-18T08:30:36;101124.96;;;13.54;76.10
12073;BME280;6098;49.004;8.372;2023-02-18T08:45:29;101109.28;;;13.69;74.97
12073;BME280;6098;49.004;8.372;2023-02-18T09:00:23;101109.74;;;13.90;74.00
12073;BME280;6098;49.004;8.372;2023-02-18T09:15:14;101092.68;;;13.83;74.25
12073;BME280;6098;49.004;8.372;2023-02-18T09:30:09;101099.44;;;14.03;73.72
12073;BME280;6098;49.004;8.372;2023-02-18T09:45:05;101089.28;;;14.11;72.00
12073;BME280;6098;49.004;8.372;2023-02-18T10:00:00;101093.25;;;14.22;71.22
12073;BME280;6098;49.004;8.372;2023-02-18T10:14:54;101104.16;;;14.28;71.30
12073;BME280;6098;49.004;8.372;2023-02-18T10:29:45;101130.27;;;14.20;71.36
12073;BME280;6098;49.004;8.372;2023-02-18T10:44:46;101101.89;;;14.29;71.75
12073;BME280;6098;49.004;8.372;2023-02-18T10:59:39;101101.63;;;14.46;71.51
12073;BME280;6098;49.004;8.372;2023-02-18T11:14:43;101096.08;;;14.60;70.99
12073;BME280;6098;49.004;8.372;2023-02-18T11:29:35;101085.72;;;14.93;69.40
12073;BME280;6098;49.004;8.372;2023-02-18T11:59:24;101104.02;;;14.72;70.42
12073;BME280;6098;49.004;8.372;2023-02-18T12:14:18;101094.37;;;14.58;71.42
12073;BME280;6098;49.004;8.372;2023-02-18T13:14:57;101067.67;;;14.49;70.80
12073;BME280;6098;49.004;8.372;2023-02-18T13:59:57;101016.73;;;15.30;57.76
12073;BME280;6098;49.004;8.372;2023-02-18T14:14:53;101007.58;;;15.35;56.42
12073;BME280;6098;49.004;8.372;2023-02-18T14:29:45;101019.62;;;15.16;55.33
12073;BME280;6098;49.004;8.372;2023-02-18T14:59:46;101040.14;;;14.78;57.11
12073;BME280;6098;49.004;8.372;2023-02-18T15:14:38;101030.88;;;14.56;58.77
12073;BME280;6098;49.004;8.372;2023-02-18T15:29:30;101026.32;;;14.49;60.20
12073;BME280;6098;49.004;8.372;2023-02-18T15:44:30;101022.27;;;14.30;60.34
12073;BME280;6098;49.004;8.372;2023-02-18T15:59:26;101015.87;;;14.14;61.68
12073;BME280;6098;49.004;8.372;2023-02-18T16:29:34;101030.67;;;13.79;63.34
12073;BME280;6098;49.004;8.372;2023-02-18T16:44:24;101040.39;;;13.59;64.37
12073;BME280;6098;49.004;8.372;2023-02-18T16:59:16;101054.79;;;13.32;65.87
12073;BME280;6098;49.004;8.372;2023-02-18T17:14:09;101065.31;;;13.00;67.84
12073;BME280;6098;49.004;8.372;2023-02-18T17:29:05;101055.59;;;12.76;69.23
12073;BME280;6098;49.004;8.372;2023-02-18T17:43:56;101075.52;;;12.65;69.88
12073;BME280;6098;49.004;8.372;2023-02-18T17:58:50;101092.19;;;12.57;70.26
12073;BME280;6098;49.004;8.372;2023-02-18T18:13:41;101099.80;;;12.56;70.37
12073;BME280;6098;49.004;8.372;2023-02-18T18:28:35;101100.76;;;12.53;69.87
12073;BME280;6098;49.004;8.372;2023-02-18T18:43:27;101127.66;;;12.45;70.55
12073;BME280;6098;49.004;8.372;2023-02-18T18:58:19;101109.27;;;12.38;70.48
12073;BME280;6098;49.004;8.372;2023-02-18T19:13:16;101094.70;;;12.24;70.96
12073;BME280;6098;49.004;8.372;2023-02-18T19:28:09;101092.82;;;12.02;72.39
12073;BME280;6098;49.004;8.372;2023-02-18T19:43:01;101092.77;;;11.89;73.29
12073;BME280;6098;49.004;8.372;2023-02-18T19:57:52;101120.59;;;11.78;74.23
12073;BME280;6098;49.004;8.372;2023-02-18T20:12:42;101105.54;;;11.64;75.07
12073;BME280;6098;49.004;8.372;2023-02-18T20:27:35;101104.66;;;11.63;75.87
12073;BME280;6098;49.004;8.372;2023-02-18T20:42:30;101105.95;;;11.51;77.82
12073;BME280;6098;49.004;8.372;2023-02-18T20:57:21;101104.28;;;11.33;80.11
12073;BME280;6098;49.004;8.372;2023-02-18T21:12:11;101118.73;;;11.08;82.21
12073;BME280;6098;49.004;8.372;2023-02-18T21:27:03;101116.78;;;10.99;83.15
12073;BME280;6098;49.004;8.372;2023-02-18T21:41:55;101107.53;;;10.83;83.78
12073;BME280;6098;49.004;8.372;2023-02-18T21:56:49;101093.67;;;10.88;83.43
12073;BME280;6098;49.004;8.372;2023-02-18T22:11:39;101091.90;;;10.74;84.01
12073;BME280;6098;49.004;8.372;2023-02-18T22:26:35;101071.91;;;10.77;84.41
12073;BME280;6098;49.004;8.372;2023-02-18T22:41:29;101068.15;;;10.69;85.86
12073;BME280;6098;49.004;8.372;2023-02-18T22:56:21;101052.89;;;10.63;85.58
12073;BME280;6098;49.004;8.372;2023-02-18T23:11:15;101043.56;;;10.63;84.20
12073;BME280;6098;49.004;8.372;2023-02-18T23:26:07;101026.22;;;10.68;83.92
12073;BME280;6098;49.004;8.372;2023-02-18T23:40:59;101021.95;;;10.62;84.95
12073;BME280;6098;49.004;8.372;2023-02-18T23:55:59;101019.20;;;10.66;85.05
